Webcam Flughafen St.Gallen-Altenrhein

Live-Bilder und Zeitraffer LSZR / ACH.

 

Live aus Altenrhein
LIVE
LSZR 180650Z AUTO VRB01KT 9999 FEW070 SCT090 12/10 Q1014
Zeitraffer heute
2019-10-18 00:14:23
LSZR 172150Z AUTO 11005KT 9999 FEW050 OVC120 11/09 Q1017